Longtown, North Carolina
Current Conditions -  °F | °C
As of 5:55 PM on Monday 24 Nov 2014 (Local Time) from KMWK Reporting Station
Clear Clear  
Wind Chill: 66°   Ceiling: Unl
Heat Index: 66°   Visibility: 10mi
Dew Point: 54°   Wind: 6mph
Humidity: 65%   Direction: 210°SSW
Pressure: 29.8"   Gusts: NA
Location:  36.2374°N, 80.6343°W
Report Text: KMWK 242255Z AUTO 21005KT 10SM CLR 19/12 A2980 RMK AO2 T01900123
Loading
Personal Weather Stations






























Interactive Weather Map New forecast layout! Learn more

10-Day Weather Forecast

Advertisements
Track Severe Weather on mobile